TimeCDT,TemperatureF,Dew PointF,Humidity,Sea Level PressureIn,VisibilityMPH,Wind Direction,Wind SpeedMPH,Gust SpeedMPH,PrecipitationIn,Events,Conditions,WindDirDegrees,DateUTC
12:15 AM,61.9,56.5,82,30.12,10.0,SSW,4.6,-,N/A,,Scattered Clouds,200,2013-08-19 05:15:00
12:35 AM,61.7,56.3,82,30.12,10.0,SSW,5.8,-,N/A,,Scattered Clouds,210,2013-08-19 05:35:00
12:55 AM,62.1,56.5,82,30.12,10.0,SW,5.8,-,N/A,,Clear,220,2013-08-19 05:55:00
1:15 AM,61.7,56.3,82,30.12,10.0,SSW,4.6,-,N/A,,Clear,210,2013-08-19 06:15:00
1:35 AM,60.6,55.9,85,30.11,10.0,South,3.5,-,N/A,,Clear,170,2013-08-19 06:35:00
1:55 AM,60.8,55.9,84,30.10,10.0,South,4.6,-,N/A,,Clear,170,2013-08-19 06:55:00
2:15 AM,60.8,55.9,84,30.10,10.0,South,4.6,-,N/A,,Clear,180,2013-08-19 07:15:00
2:35 AM,59.9,55.8,86,30.10,10.0,South,4.6,-,N/A,,Clear,170,2013-08-19 07:35:00
2:55 AM,59.9,55.8,86,30.10,10.0,SSE,4.6,-,N/A,,Clear,160,2013-08-19 07:55:00
3:15 AM,59.0,55.6,88,30.09,10.0,SSE,4.6,-,N/A,,Clear,160,2013-08-19 08:15:00
3:35 AM,58.1,54.9,89,30.09,10.0,South,3.5,-,N/A,,Clear,170,2013-08-19 08:35:00
3:55 AM,58.1,55.0,90,30.09,7.0,SSW,4.6,-,N/A,,Clear,200,2013-08-19 08:55:00
4:15 AM,57.7,55.0,91,30.09,7.0,South,4.6,-,N/A,,Clear,190,2013-08-19 09:15:00
4:35 AM,58.6,55.6,90,30.10,7.0,South,4.6,-,N/A,,Clear,190,2013-08-19 09:35:00
4:55 AM,59.0,55.9,90,30.10,7.0,South,4.6,-,N/A,,Clear,180,2013-08-19 09:55:00
5:15 AM,59.0,55.9,90,30.10,7.0,South,4.6,-,N/A,,Clear,180,2013-08-19 10:15:00
5:35 AM,59.0,55.9,90,30.10,7.0,SSE,4.6,-,N/A,,Clear,160,2013-08-19 10:35:00
5:55 AM,58.3,55.6,91,30.10,7.0,South,4.6,-,N/A,,Clear,170,2013-08-19 10:55:00
6:15 AM,59.2,56.3,90,30.10,7.0,South,4.6,-,N/A,,Clear,170,2013-08-19 11:15:00
6:35 AM,59.0,56.3,91,30.10,7.0,South,4.6,-,N/A,,Clear,190,2013-08-19 11:35:00
6:55 AM,59.4,56.7,91,30.10,5.0,South,4.6,-,N/A,,Clear,180,2013-08-19 11:55:00
7:15 AM,60.3,57.4,90,30.10,5.0,South,4.6,-,N/A,,Clear,170,2013-08-19 12:15:00
7:35 AM,61.2,57.9,89,30.09,7.0,South,4.6,-,N/A,,Clear,170,2013-08-19 12:35:00
7:55 AM,62.6,58.8,87,30.10,7.0,South,5.8,-,N/A,,Clear,180,2013-08-19 12:55:00
8:15 AM,64.6,59.5,84,30.10,7.0,South,6.9,-,N/A,,Clear,180,2013-08-19 13:15:00
8:35 AM,66.7,60.1,79,30.11,10.0,South,5.8,-,N/A,,Clear,180,2013-08-19 13:35:00
8:55 AM,67.1,60.6,80,30.11,10.0,South,4.6,-,N/A,,Clear,170,2013-08-19 13:55:00
9:15 AM,68.0,61.2,79,30.12,10.0,South,4.6,-,N/A,,Clear,180,2013-08-19 14:15:00
9:35 AM,70.2,62.1,75,30.12,10.0,South,5.8,-,N/A,,Clear,190,2013-08-19 14:35:00
9:55 AM,72.5,62.4,71,30.12,10.0,SSW,6.9,-,N/A,,Clear,200,2013-08-19 14:55:00
10:15 AM,72.1,61.7,70,30.12,10.0,South,6.9,-,N/A,,Clear,190,2013-08-19 15:15:00
10:35 AM,73.2,62.6,69,30.12,10.0,South,5.8,-,N/A,,Clear,170,2013-08-19 15:35:00
10:55 AM,75.6,62.6,64,30.11,10.0,South,8.1,-,N/A,,Clear,180,2013-08-19 15:55:00
11:15 AM,74.3,61.2,63,30.11,10.0,South,6.9,-,N/A,,Clear,190,2013-08-19 16:15:00
11:35 AM,74.7,61.5,63,30.11,10.0,South,5.8,-,N/A,,Clear,190,2013-08-19 16:35:00
11:55 AM,76.1,62.8,63,30.10,10.0,South,10.4,-,N/A,,Clear,170,2013-08-19 16:55:00
12:15 PM,78.4,61.5,56,30.10,10.0,South,11.5,16.1,N/A,,Clear,170,2013-08-19 17:15:00
12:35 PM,78.3,61.2,56,30.09,10.0,South,8.1,-,N/A,,Clear,180,2013-08-19 17:35:00
12:55 PM,78.8,60.6,54,30.09,10.0,SSW,10.4,-,N/A,,Clear,200,2013-08-19 17:55:00
1:15 PM,80.4,62.1,53,30.08,10.0,SSW,9.2,-,N/A,,Clear,210,2013-08-19 18:15:00
1:35 PM,80.6,60.8,51,30.07,10.0,South,10.4,-,N/A,,Scattered Clouds,190,2013-08-19 18:35:00
1:55 PM,81.1,60.6,50,30.07,10.0,SSW,8.1,-,N/A,,Scattered Clouds,210,2013-08-19 18:55:00
2:15 PM,81.7,60.3,48,30.06,10.0,South,6.9,-,N/A,,Scattered Clouds,170,2013-08-19 19:15:00
2:35 PM,82.4,59.2,45,30.06,10.0,South,9.2,-,N/A,,Scattered Clouds,190,2013-08-19 19:35:00
2:55 PM,82.2,59.9,47,30.06,10.0,South,9.2,-,N/A,,Scattered Clouds,190,2013-08-19 19:55:00
3:15 PM,82.6,59.4,45,30.05,10.0,SSE,8.1,-,N/A,,Scattered Clouds,160,2013-08-19 20:15:00
3:35 PM,82.0,59.0,45,30.04,10.0,SSE,9.2,-,N/A,,Scattered Clouds,160,2013-08-19 20:35:00
3:55 PM,83.1,59.7,45,30.03,10.0,SSW,9.2,-,N/A,,Scattered Clouds,200,2013-08-19 20:55:00
4:15 PM,83.3,59.9,45,30.03,10.0,South,5.8,-,N/A,,Scattered Clouds,190,2013-08-19 21:15:00
4:35 PM,82.6,59.5,45,30.03,10.0,South,8.1,-,N/A,,Scattered Clouds,180,2013-08-19 21:35:00
4:55 PM,82.9,59.4,45,30.02,10.0,South,6.9,-,N/A,,Scattered Clouds,170,2013-08-19 21:55:00
5:15 PM,82.6,59.5,45,30.02,10.0,South,4.6,-,N/A,,Clear,190,2013-08-19 22:15:00
5:35 PM,82.4,59.4,45,30.02,10.0,South,6.9,-,N/A,,Clear,180,2013-08-19 22:35:00
5:55 PM,82.2,60.1,47,30.01,10.0,SSE,5.8,-,N/A,,Clear,160,2013-08-19 22:55:00
6:15 PM,81.9,59.2,46,30.01,10.0,South,4.6,-,N/A,,Mostly Cloudy,170,2013-08-19 23:15:00
6:35 PM,81.0,60.4,50,30.01,10.0,SSE,4.6,-,N/A,,Mostly Cloudy,160,2013-08-19 23:35:00
6:55 PM,80.2,60.6,51,30.01,10.0,SSE,4.6,-,N/A,,Scattered Clouds,150,2013-08-19 23:55:00
7:15 PM,78.1,60.8,55,30.01,10.0,SSE,4.6,-,N/A,,Clear,160,2013-08-20 00:15:00
7:35 PM,76.5,61.2,59,30.01,10.0,Calm,Calm,-,N/A,,Scattered Clouds,0,2013-08-20 00:35:00
7:55 PM,74.8,61.9,64,30.01,10.0,Calm,Calm,-,N/A,,Scattered Clouds,0,2013-08-20 00:55:00
8:15 PM,72.7,62.4,70,30.02,10.0,Calm,Calm,-,N/A,,Clear,0,2013-08-20 01:15:00
8:35 PM,71.6,62.6,73,30.02,10.0,SSE,3.5,-,N/A,,Scattered Clouds,150,2013-08-20 01:35:00
8:55 PM,70.7,61.9,74,30.02,10.0,SSE,3.5,-,N/A,,Scattered Clouds,150,2013-08-20 01:55:00
9:15 PM,70.9,60.8,70,30.02,10.0,SSE,4.6,-,N/A,,Clear,160,2013-08-20 02:15:00
9:35 PM,70.9,59.9,68,30.02,10.0,SSE,4.6,-,N/A,,Clear,160,2013-08-20 02:35:00
9:55 PM,70.7,59.9,69,30.03,10.0,SSE,4.6,-,N/A,,Clear,160,2013-08-20 02:55:00
10:15 PM,70.2,59.4,69,30.03,10.0,SSE,4.6,-,N/A,,Clear,160,2013-08-20 03:15:00
10:35 PM,70.2,59.0,68,30.03,10.0,South,3.5,-,N/A,,Clear,170,2013-08-20 03:35:00
10:55 PM,69.8,59.0,68,30.03,10.0,South,5.8,-,N/A,,Clear,170,2013-08-20 03:55:00
11:15 PM,69.8,59.0,68,30.03,10.0,South,4.6,-,N/A,,Clear,170,2013-08-20 04:15:00
11:35 PM,69.3,59.2,70,30.02,10.0,South,4.6,-,N/A,,Clear,180,2013-08-20 04:35:00
11:55 PM,68.4,59.2,72,30.02,10.0,South,3.5,-,N/A,,Clear,170,2013-08-20 04:55:00